createdAt,value
2018-04-02T00:02:16.521Z,53.43
2018-04-02T00:04:44.103Z,53.16
2018-04-02T00:07:11.688Z,52.69
2018-04-02T00:09:39.273Z,52.35
2018-04-02T00:12:06.897Z,52.47
2018-04-02T00:14:34.491Z,52.19
2018-04-02T00:17:02.092Z,51.43
2018-04-02T00:19:29.675Z,52.25
2018-04-02T00:21:57.282Z,52.24
2018-04-02T00:24:24.925Z,52.70
2018-04-02T00:26:52.895Z,53.59
2018-04-02T00:29:20.474Z,53.15
2018-04-02T00:31:48.259Z,53.37
2018-04-02T00:34:15.872Z,53.09
2018-04-02T00:36:43.455Z,52.52
2018-04-02T00:39:11.044Z,52.16
2018-04-02T00:41:38.702Z,52.34
2018-04-02T00:44:06.315Z,51.92
2018-04-02T00:46:33.895Z,52.53
2018-04-02T00:49:01.478Z,52.33
2018-04-02T00:51:29.063Z,52.03
2018-04-02T00:53:56.639Z,51.29
2018-04-02T00:56:24.271Z,51.01
2018-04-02T00:58:51.881Z,51.00
2018-04-02T01:01:19.506Z,50.85
2018-04-02T01:03:47.151Z,50.99
2018-04-02T01:06:14.730Z,51.37
2018-04-02T01:08:42.320Z,50.89
2018-04-02T01:11:09.951Z,51.28
2018-04-02T01:13:37.531Z,50.91
2018-04-02T01:16:05.131Z,51.34
2018-04-02T01:18:32.764Z,51.58
2018-04-02T01:21:00.342Z,50.94
2018-04-02T01:23:27.929Z,50.44
2018-04-02T01:25:55.598Z,50.20
2018-04-02T01:28:23.195Z,50.12
2018-04-02T01:30:50.791Z,50.44
2018-04-02T01:33:18.454Z,50.33
2018-04-02T01:35:46.053Z,50.05
2018-04-02T01:38:13.643Z,49.99
2018-04-02T01:40:41.227Z,50.49
2018-04-02T01:43:08.934Z,49.79
2018-04-02T01:45:36.529Z,50.07
2018-04-02T01:48:04.175Z,50.58
2018-04-02T01:50:31.774Z,50.82
2018-04-02T01:52:59.375Z,50.41
2018-04-02T01:55:27.018Z,50.73
2018-04-02T01:57:54.646Z,50.54
2018-04-02T02:00:22.251Z,50.69
2018-04-02T02:02:49.906Z,51.62
2018-04-02T02:05:17.486Z,51.39
2018-04-02T02:07:45.059Z,51.14
2018-04-02T02:10:12.674Z,50.89
2018-04-02T02:12:40.282Z,49.79
2018-04-02T02:15:07.862Z,49.71
2018-04-02T02:17:35.446Z,49.37
2018-04-02T02:20:03.033Z,49.54
2018-04-02T02:22:30.663Z,50.26
2018-04-02T02:24:58.256Z,49.80
2018-04-02T02:27:25.883Z,49.89
2018-04-02T02:29:53.487Z,49.59
2018-04-02T02:32:21.079Z,49.82
2018-04-02T02:34:48.704Z,49.70
2018-04-02T02:37:16.307Z,49.39
2018-04-02T02:39:43.894Z,49.62
2018-04-02T02:42:11.511Z,49.59
2018-04-02T02:44:39.134Z,49.66
2018-04-02T02:47:06.778Z,49.81
2018-04-02T02:49:34.375Z,50.26
2018-04-02T02:52:02.033Z,50.10
2018-04-02T02:54:29.618Z,50.75
2018-04-02T02:56:58.685Z,50.31
2018-04-02T02:59:26.558Z,51.33
2018-04-02T03:01:54.149Z,51.16
2018-04-02T03:04:21.759Z,50.94
2018-04-02T03:06:49.341Z,51.61
2018-04-02T03:09:16.975Z,51.49
2018-04-02T03:11:44.568Z,51.48
2018-04-02T03:14:12.191Z,51.57
2018-04-02T03:16:39.818Z,51.30
2018-04-02T03:19:07.399Z,51.55
2018-04-02T03:21:34.974Z,51.15
2018-04-02T03:24:02.558Z,51.53
2018-04-02T03:26:30.230Z,51.28
2018-04-02T03:28:57.906Z,51.54
2018-04-02T03:31:25.500Z,52.00
2018-04-02T03:33:53.086Z,51.78
2018-04-02T03:36:20.690Z,51.73
2018-04-02T03:38:48.276Z,51.56
2018-04-02T03:41:15.887Z,51.78
2018-04-02T03:43:43.507Z,50.97
2018-04-02T03:46:11.107Z,50.51
2018-04-02T03:48:38.717Z,50.42
2018-04-02T03:51:06.316Z,50.37
2018-04-02T03:53:33.979Z,50.72
2018-04-02T03:56:01.555Z,50.35
2018-04-02T03:58:29.143Z,49.97
2018-04-02T04:00:56.802Z,49.73
2018-04-02T04:03:24.414Z,49.88
2018-04-02T04:05:51.998Z,50.41
2018-04-02T04:08:19.634Z,50.57
2018-04-02T04:10:47.239Z,50.94
2018-04-02T04:13:14.829Z,50.81
2018-04-02T04:15:42.490Z,50.68
2018-04-02T04:18:10.107Z,50.79
2018-04-02T04:20:37.727Z,51.31
2018-04-02T04:23:05.857Z,51.39
2018-04-02T04:25:34.313Z,51.61
2018-04-02T04:28:02.567Z,52.06
2018-04-02T04:30:30.174Z,51.28
2018-04-02T04:33:01.123Z,51.64
2018-04-02T04:35:28.771Z,51.66
2018-04-02T04:37:56.605Z,51.92
2018-04-02T04:40:24.579Z,51.97
2018-04-02T04:42:52.468Z,51.73
2018-04-02T04:45:20.050Z,51.86
2018-04-02T04:47:47.667Z,51.95
2018-04-02T04:50:15.612Z,51.71
2018-04-02T04:52:43.240Z,51.63
2018-04-02T04:55:11.313Z,51.58
2018-04-02T04:57:39.460Z,51.36
2018-04-02T05:00:07.100Z,50.73
2018-04-02T05:02:34.727Z,50.46
2018-04-02T05:05:02.359Z,49.60
2018-04-02T05:07:29.950Z,49.22
2018-04-02T05:09:57.722Z,48.86
2018-04-02T05:12:25.374Z,47.99
2018-04-02T05:14:53.021Z,48.42
2018-04-02T05:17:20.618Z,47.36
2018-04-02T05:19:48.229Z,46.73
2018-04-02T05:22:15.882Z,46.50
2018-04-02T05:24:43.551Z,45.00
2018-04-02T05:27:11.159Z,44.06
2018-04-02T05:29:39.270Z,44.11
2018-04-02T05:32:06.910Z,45.01
2018-04-02T05:34:34.531Z,44.55
2018-04-02T05:37:02.192Z,46.55
2018-04-02T05:39:29.777Z,45.50
2018-04-02T05:41:57.484Z,45.41
2018-04-02T05:44:25.111Z,45.17
2018-04-02T05:46:52.754Z,46.30
2018-04-02T05:49:20.350Z,46.41
2018-04-02T05:51:47.985Z,45.53
2018-04-02T05:54:15.593Z,44.79
2018-04-02T05:56:43.221Z,46.11
2018-04-02T05:59:10.824Z,45.42
2018-04-02T06:01:38.430Z,43.71
2018-04-02T06:04:06.056Z,44.49
2018-04-02T06:06:33.663Z,43.51
2018-04-02T06:09:01.247Z,44.28
2018-04-02T06:11:28.908Z,43.55
2018-04-02T06:13:56.515Z,42.87
2018-04-02T06:16:24.099Z,42.52
2018-04-02T06:18:51.727Z,42.07
2018-04-02T06:21:19.335Z,42.82
2018-04-02T06:23:46.960Z,42.56
2018-04-02T06:26:14.600Z,42.61
2018-04-02T06:28:42.188Z,42.78
2018-04-02T06:31:09.790Z,41.96
2018-04-02T06:33:37.462Z,41.83
2018-04-02T06:36:05.056Z,41.11
2018-04-02T06:38:32.650Z,40.38
2018-04-02T06:41:00.283Z,39.96
2018-04-02T06:43:27.907Z,40.75
2018-04-02T06:45:55.508Z,40.19
2018-04-02T06:48:23.114Z,39.98
2018-04-02T06:50:50.721Z,39.66
2018-04-02T06:53:18.370Z,39.72
2018-04-02T06:55:45.991Z,40.18
2018-04-02T06:58:13.585Z,40.94
2018-04-02T07:00:41.214Z,41.97
2018-04-02T07:03:08.824Z,42.08
2018-04-02T07:05:36.448Z,42.95
2018-04-02T07:08:04.075Z,43.65
2018-04-02T07:10:31.683Z,44.23
2018-04-02T07:12:59.268Z,44.30
2018-04-02T07:15:26.875Z,42.73
2018-04-02T07:17:54.507Z,42.29
2018-04-02T07:20:22.125Z,41.22
2018-04-02T07:22:49.748Z,40.04
2018-04-02T07:25:17.366Z,38.92
2018-04-02T07:27:45.031Z,37.77
2018-04-02T07:30:12.630Z,36.50
2018-04-02T07:32:40.261Z,37.20
2018-04-02T07:35:07.844Z,36.82
2018-04-02T07:37:35.442Z,36.12
2018-04-02T07:40:03.073Z,35.37
2018-04-02T07:42:30.687Z,35.75
2018-04-02T07:44:58.267Z,35.92
2018-04-02T07:47:25.908Z,35.56
2018-04-02T07:49:53.638Z,37.11
2018-04-02T07:52:21.267Z,35.17
2018-04-02T07:54:48.847Z,34.17
2018-04-02T07:57:16.500Z,34.29
2018-04-02T07:59:44.121Z,33.69
2018-04-02T08:02:11.764Z,33.26
2018-04-02T08:04:39.354Z,34.45
2018-04-02T08:07:06.942Z,34.09
2018-04-02T08:09:34.574Z,34.14
2018-04-02T08:12:02.182Z,34.91
2018-04-02T08:14:29.824Z,36.30
2018-04-02T08:16:57.431Z,36.80
2018-04-02T08:19:25.028Z,38.03
2018-04-02T08:21:52.694Z,36.22
2018-04-02T08:24:20.284Z,35.21
2018-04-02T08:26:47.895Z,34.05
2018-04-02T08:29:15.522Z,32.88
2018-04-02T08:31:43.118Z,33.11
2018-04-02T08:34:10.741Z,33.22
2018-04-02T08:36:38.403Z,31.71
2018-04-02T08:39:06.068Z,32.68
2018-04-02T08:41:33.706Z,32.05
2018-04-02T08:44:01.367Z,33.01
2018-04-02T08:46:29.021Z,33.15
2018-04-02T08:48:56.648Z,32.74
2018-04-02T08:51:24.294Z,32.88
2018-04-02T08:53:51.879Z,33.07
2018-04-02T08:56:19.694Z,31.91
2018-04-02T08:58:47.311Z,30.90
2018-04-02T09:01:14.940Z,29.13
2018-04-02T09:03:42.522Z,28.85
2018-04-02T09:06:10.104Z,27.74
2018-04-02T09:11:04.615Z,27.96
2018-04-02T09:13:32.218Z,27.08
2018-04-02T09:15:59.830Z,27.49
2018-04-02T09:18:27.503Z,27.17
2018-04-02T09:20:55.117Z,26.27
2018-04-02T09:23:22.705Z,25.94
2018-04-02T09:25:50.326Z,26.44
2018-04-02T09:28:17.974Z,26.97
2018-04-02T09:30:45.571Z,27.15
2018-04-02T09:33:13.164Z,27.14
2018-04-02T09:35:40.805Z,28.34
2018-04-02T09:38:08.471Z,26.08
2018-04-02T09:40:36.058Z,25.47
2018-04-02T09:43:03.660Z,26.26
2018-04-02T09:45:31.333Z,24.29
2018-04-02T09:47:58.907Z,24.92
2018-04-02T09:50:26.494Z,24.74
2018-04-02T09:52:54.480Z,24.59
2018-04-02T09:55:22.190Z,23.66
2018-04-02T09:57:49.807Z,21.80
2018-04-02T10:00:17.452Z,23.78
2018-04-02T10:02:45.799Z,23.21
2018-04-02T10:05:13.444Z,22.39
2018-04-02T10:07:41.074Z,22.50
2018-04-02T10:10:08.688Z,23.48
2018-04-02T10:12:36.311Z,22.32
2018-04-02T10:15:03.907Z,21.25
2018-04-02T10:17:31.498Z,21.65
2018-04-02T10:19:59.184Z,21.79
2018-04-02T10:22:26.769Z,21.26
2018-04-02T10:24:54.367Z,20.89
2018-04-02T10:27:21.968Z,21.73
2018-04-02T10:29:49.566Z,22.05
2018-04-02T10:32:17.272Z,20.73
2018-04-02T10:34:44.856Z,19.93
2018-04-02T10:37:12.452Z,21.34
2018-04-02T10:39:40.091Z,21.02
2018-04-02T10:42:07.699Z,20.75
2018-04-02T10:44:35.386Z,22.59
2018-04-02T10:47:03.083Z,22.76
2018-04-02T10:49:30.697Z,22.69
2018-04-02T10:51:58.302Z,21.32
2018-04-02T10:54:25.952Z,20.13
2018-04-02T10:56:53.543Z,20.05
2018-04-02T10:59:21.180Z,22.54
2018-04-02T11:01:48.801Z,22.98
2018-04-02T11:04:16.414Z,23.02
2018-04-02T11:06:43.998Z,23.42
2018-04-02T11:09:11.592Z,22.88
2018-04-02T11:11:39.275Z,23.52
2018-04-02T11:14:06.882Z,21.69
2018-04-02T11:16:34.503Z,22.01
2018-04-02T11:19:02.083Z,21.04
2018-04-02T11:21:29.699Z,21.19
2018-04-02T11:23:57.318Z,23.08
2018-04-02T11:26:24.987Z,21.58
2018-04-02T11:28:52.582Z,23.03
2018-04-02T11:31:20.239Z,22.64
2018-04-02T11:33:47.839Z,21.18
2018-04-02T11:36:15.427Z,21.13
2018-04-02T11:38:43.013Z,20.95
2018-04-02T11:41:10.598Z,22.24
2018-04-02T11:43:38.233Z,21.04
2018-04-02T11:46:05.818Z,20.66
2018-04-02T11:48:33.398Z,21.19
2018-04-02T11:51:01.019Z,20.69
2018-04-02T11:53:28.626Z,22.06
2018-04-02T11:55:56.263Z,23.31
2018-04-02T11:58:23.845Z,23.25
2018-04-02T12:00:51.515Z,22.48
2018-04-02T12:03:19.139Z,22.45
2018-04-02T12:05:46.747Z,21.48
2018-04-02T12:08:14.330Z,22.14
2018-04-02T12:10:41.959Z,22.32
2018-04-02T12:13:09.564Z,21.09
2018-04-02T12:15:37.175Z,22.25
2018-04-02T12:18:04.793Z,21.97
2018-04-02T12:20:32.380Z,23.02
2018-04-02T12:23:00.039Z,21.25
2018-04-02T12:25:27.635Z,20.75
2018-04-02T12:27:55.243Z,19.71
2018-04-02T12:30:22.874Z,20.59
2018-04-02T12:32:50.473Z,19.84
2018-04-02T12:35:18.079Z,18.65
2018-04-02T12:37:45.763Z,19.99
2018-04-02T12:40:13.358Z,19.77
2018-04-02T12:42:40.962Z,19.13
2018-04-02T12:45:08.571Z,18.68
2018-04-02T12:47:36.207Z,18.96
2018-04-02T12:50:03.852Z,18.89
2018-04-02T12:52:31.447Z,19.25
2018-04-02T12:54:59.037Z,18.42
2018-04-02T12:57:26.663Z,18.66
2018-04-02T12:59:54.267Z,18.62
2018-04-02T13:02:21.891Z,18.41
2018-04-02T13:04:49.535Z,18.79
2018-04-02T13:07:17.133Z,18.81
2018-04-02T13:09:44.763Z,19.36
2018-04-02T13:12:12.340Z,19.06
2018-04-02T13:14:39.923Z,19.57
2018-04-02T13:17:07.555Z,19.67
2018-04-02T13:19:35.265Z,20.07
2018-04-02T13:22:02.884Z,19.16
2018-04-02T13:24:30.484Z,19.16
2018-04-02T13:26:58.084Z,21.09
2018-04-02T13:29:25.750Z,20.21
2018-04-02T13:34:45.675Z,21.71
2018-04-02T13:37:13.278Z,20.46
2018-04-02T13:39:40.870Z,21.09
2018-04-02T13:42:08.547Z,20.75
2018-04-02T13:44:36.153Z,20.98
2018-04-02T13:47:03.743Z,20.45
2018-04-02T13:49:31.373Z,20.25
2018-04-02T13:51:58.973Z,21.53
2018-04-02T13:54:26.593Z,21.98
2018-04-02T13:56:54.270Z,22.02
2018-04-02T13:59:21.853Z,20.42
2018-04-02T14:01:49.446Z,20.79
2018-04-02T14:04:17.067Z,20.77
2018-04-02T14:06:44.682Z,21.99
2018-04-02T14:09:12.308Z,21.68
2018-04-02T14:11:40.047Z,22.79
2018-04-02T14:14:07.650Z,22.34
2018-04-02T14:16:35.247Z,22.60
2018-04-02T14:19:02.923Z,23.29
2018-04-02T14:21:30.532Z,23.02
2018-04-02T14:23:58.143Z,22.13
2018-04-02T14:26:25.770Z,22.44
2018-04-02T14:28:53.394Z,22.29
2018-04-02T14:31:20.987Z,21.80
2018-04-02T14:33:48.606Z,21.47
2018-04-02T14:36:16.226Z,20.99
2018-04-02T14:38:43.826Z,20.72
2018-04-02T14:41:11.483Z,20.83
2018-04-02T14:43:39.107Z,20.66
2018-04-02T14:46:06.715Z,20.33
2018-04-02T14:48:34.339Z,20.23
2018-04-02T14:51:01.928Z,20.10
2018-04-02T14:53:32.015Z,20.41
2018-04-02T14:55:59.644Z,20.32
2018-04-02T14:58:27.223Z,21.02
2018-04-02T15:00:54.802Z,21.87
2018-04-02T15:03:22.392Z,21.42
2018-04-02T15:05:50.239Z,21.43
2018-04-02T15:08:17.880Z,21.44
2018-04-02T15:10:45.473Z,21.00
2018-04-02T15:13:13.088Z,20.62
2018-04-02T15:15:40.707Z,20.35
2018-04-02T15:18:08.329Z,20.40
2018-04-02T15:20:35.926Z,20.42
2018-04-02T15:23:03.571Z,20.85
2018-04-02T15:25:31.181Z,21.11
2018-04-02T15:27:58.782Z,21.96
2018-04-02T15:30:26.477Z,22.46
2018-04-02T15:32:54.082Z,22.98
2018-04-02T15:35:21.687Z,22.60
2018-04-02T15:37:49.350Z,23.30
2018-04-02T15:40:16.944Z,23.17
2018-04-02T15:42:44.595Z,22.70
2018-04-02T15:45:12.195Z,22.71
2018-04-02T15:47:39.786Z,22.33
2018-04-02T15:50:07.455Z,22.35
2018-04-02T15:52:35.047Z,22.59
2018-04-02T15:55:02.654Z,22.78
2018-04-02T15:57:30.275Z,22.46
2018-04-02T15:59:57.882Z,22.77
2018-04-02T16:02:25.463Z,23.42
2018-04-02T16:04:53.115Z,23.61
2018-04-02T16:07:20.705Z,23.85
2018-04-02T16:09:48.291Z,24.47
2018-04-02T16:12:15.891Z,24.59
2018-04-02T16:14:43.492Z,24.86
2018-04-02T16:17:11.223Z,24.96
2018-04-02T16:19:38.772Z,25.01
2018-04-02T16:22:06.353Z,25.82
2018-04-02T16:24:33.999Z,26.22
2018-04-02T16:27:01.579Z,25.88
2018-04-02T16:29:29.178Z,26.49
2018-04-02T16:31:56.851Z,25.66
2018-04-02T16:34:24.454Z,26.02
2018-04-02T16:36:52.106Z,26.01
2018-04-02T16:39:19.691Z,25.95
2018-04-02T16:41:47.270Z,27.02
2018-04-02T16:44:14.943Z,26.52
2018-04-02T16:46:42.540Z,26.75
2018-04-02T16:49:10.142Z,26.85
2018-04-02T16:51:37.743Z,27.30
2018-04-02T16:54:05.315Z,27.55
2018-04-02T16:56:32.988Z,27.70
2018-04-02T16:59:00.626Z,28.32
2018-04-02T17:01:28.308Z,27.84
2018-04-02T17:03:55.938Z,28.77
2018-04-02T17:06:23.518Z,28.36
2018-04-02T17:08:51.103Z,28.81
2018-04-02T17:11:18.753Z,28.31
2018-04-02T17:13:46.352Z,28.48
2018-04-02T17:16:13.936Z,28.05
2018-04-02T17:18:42.852Z,28.82
2018-04-02T17:21:10.447Z,28.56
2018-04-02T17:23:38.044Z,28.71
2018-04-02T17:26:05.694Z,29.54
2018-04-02T17:28:33.324Z,29.68
2018-04-02T17:31:00.919Z,29.93
2018-04-02T17:33:28.558Z,30.08
2018-04-02T17:35:56.181Z,29.91
2018-04-02T17:38:23.780Z,29.53
2018-04-02T17:40:51.400Z,30.03
2018-04-02T17:43:18.982Z,30.27
2018-04-02T17:45:46.579Z,30.38
2018-04-02T17:48:14.178Z,30.19
2018-04-02T17:50:41.758Z,30.02
2018-04-02T17:53:09.387Z,30.02
2018-04-02T17:55:36.985Z,30.10
2018-04-02T17:58:04.618Z,30.15
2018-04-02T18:00:32.244Z,30.08
2018-04-02T18:02:59.840Z,29.56
2018-04-02T18:05:27.501Z,29.43
2018-04-02T18:07:55.111Z,29.28
2018-04-02T18:10:22.751Z,28.90
2018-04-02T18:12:50.431Z,28.86
2018-04-02T18:15:18.041Z,29.25
2018-04-02T18:17:45.670Z,29.79
2018-04-02T18:20:13.302Z,30.96
2018-04-02T18:22:40.925Z,31.54
2018-04-02T18:25:08.543Z,32.79
2018-04-02T18:27:36.167Z,33.93
2018-04-02T18:30:03.817Z,34.10
2018-04-02T18:32:31.416Z,34.29
2018-04-02T18:34:59.007Z,34.26
2018-04-02T18:37:26.650Z,34.76
2018-04-02T18:39:54.254Z,34.34
2018-04-02T18:42:21.838Z,34.21
2018-04-02T18:44:49.443Z,34.75
2018-04-02T18:47:17.056Z,34.24
2018-04-02T18:49:44.699Z,34.63
2018-04-02T18:52:12.283Z,34.62
2018-04-02T18:54:39.883Z,35.19
2018-04-02T18:57:07.497Z,36.10
2018-04-02T18:59:35.088Z,36.08
2018-04-02T19:02:02.807Z,36.60
2018-04-02T19:04:30.519Z,37.42
2018-04-02T19:06:58.131Z,37.09
2018-04-02T19:09:25.770Z,37.26
2018-04-02T19:11:53.382Z,36.84
2018-04-02T19:14:20.980Z,37.29
2018-04-02T19:16:48.619Z,37.23
2018-04-02T19:19:16.230Z,38.72
2018-04-02T19:21:43.866Z,38.88
2018-04-02T19:24:12.643Z,38.87
2018-04-02T19:26:40.235Z,38.76
2018-04-02T19:29:07.878Z,38.32
2018-04-02T19:31:35.475Z,38.00
2018-04-02T19:34:03.083Z,37.95
2018-04-02T19:36:30.738Z,37.75
2018-04-02T19:38:58.375Z,38.80
2018-04-02T19:41:25.998Z,38.94
2018-04-02T19:43:53.648Z,38.62
2018-04-02T19:46:21.247Z,38.83
2018-04-02T19:48:48.933Z,37.78
2018-04-02T19:51:16.622Z,38.35
2018-04-02T19:53:44.261Z,37.91
2018-04-02T19:56:11.860Z,38.26
2018-04-02T19:58:39.499Z,38.26
2018-04-02T20:01:07.096Z,38.55
2018-04-02T20:03:34.707Z,38.02
2018-04-02T20:06:02.322Z,38.74
2018-04-02T20:08:29.915Z,38.80
2018-04-02T20:10:57.585Z,39.05
2018-04-02T20:13:25.231Z,39.50
2018-04-02T20:15:52.820Z,39.32
2018-04-02T20:18:20.491Z,39.16
2018-04-02T20:20:48.084Z,39.40
2018-04-02T20:23:15.715Z,40.66
2018-04-02T20:25:43.379Z,41.00
2018-04-02T20:28:11.012Z,40.85
2018-04-02T20:30:38.600Z,40.29
2018-04-02T20:33:06.239Z,40.30
2018-04-02T20:35:33.863Z,39.91
2018-04-02T20:38:01.463Z,40.14
2018-04-02T20:40:29.057Z,39.64
2018-04-02T20:42:56.646Z,39.46
2018-04-02T20:45:24.270Z,39.21
2018-04-02T20:47:51.991Z,39.45
2018-04-02T20:50:19.789Z,39.23
2018-04-02T20:52:47.454Z,39.61
2018-04-02T20:55:15.071Z,39.96
2018-04-02T20:57:43.285Z,39.94
2018-04-02T21:00:10.360Z,40.23
2018-04-02T21:02:37.943Z,40.40
2018-04-02T21:05:05.675Z,40.26
2018-04-02T21:07:33.292Z,41.84
2018-04-02T21:10:00.891Z,41.22
2018-04-02T21:12:28.561Z,40.67
2018-04-02T21:14:56.191Z,40.76
2018-04-02T21:17:23.779Z,40.28
2018-04-02T21:19:51.401Z,40.33
2018-04-02T21:22:19.033Z,41.42
2018-04-02T21:24:46.676Z,41.54
2018-04-02T21:27:14.320Z,41.91
2018-04-02T21:29:41.958Z,41.80
2018-04-02T21:32:09.574Z,42.97
2018-04-02T21:34:37.167Z,43.99
2018-04-02T21:37:04.800Z,44.83
2018-04-02T21:39:32.400Z,44.63
2018-04-02T21:42:00.007Z,44.14
2018-04-02T21:44:27.619Z,44.01
2018-04-02T21:46:55.206Z,44.03
2018-04-02T21:49:22.854Z,43.39
2018-04-02T21:51:50.479Z,43.76
2018-04-02T21:54:18.086Z,43.94
2018-04-02T21:56:45.754Z,44.62
2018-04-02T21:59:13.343Z,45.03
2018-04-02T22:01:40.929Z,45.76
2018-04-02T22:04:08.591Z,45.97
2018-04-02T22:06:48.410Z,46.24
2018-04-02T22:09:16.045Z,46.09
2018-04-02T22:11:43.637Z,45.46
2018-04-02T22:14:11.231Z,44.13
2018-04-02T22:16:38.883Z,43.64
2018-04-02T22:19:06.531Z,43.36
2018-04-02T22:21:34.126Z,44.26
2018-04-02T22:24:01.724Z,45.19
2018-04-02T22:26:29.322Z,45.20
2018-04-02T22:28:56.964Z,45.67
2018-04-02T22:31:24.575Z,46.20
2018-04-02T22:33:52.262Z,45.59
2018-04-02T22:36:19.939Z,45.00
2018-04-02T22:38:47.570Z,45.70
2018-04-02T22:41:18.335Z,46.07
2018-04-02T22:43:45.931Z,46.16
2018-04-02T22:46:13.563Z,46.41
2018-04-02T22:48:41.263Z,46.87
2018-04-02T22:51:08.896Z,46.68
2018-04-02T22:53:36.491Z,46.48
2018-04-02T22:56:04.119Z,46.84
2018-04-02T22:58:31.731Z,47.04
2018-04-02T23:00:59.359Z,46.79
2018-04-02T23:03:27.022Z,45.60
2018-04-02T23:05:54.622Z,46.50
2018-04-02T23:08:22.202Z,44.94
2018-04-02T23:10:49.832Z,46.54
2018-04-02T23:13:17.433Z,47.97
2018-04-02T23:15:45.029Z,46.74
2018-04-02T23:18:12.662Z,45.97
2018-04-02T23:20:40.262Z,46.18
2018-04-02T23:23:07.878Z,45.07
2018-04-02T23:25:35.494Z,44.92
2018-04-02T23:28:03.084Z,44.70
2018-04-02T23:30:30.679Z,44.62
2018-04-02T23:32:58.302Z,45.40
2018-04-02T23:35:25.886Z,45.35
2018-04-02T23:37:53.529Z,45.50
2018-04-02T23:40:21.135Z,45.40
2018-04-02T23:42:48.734Z,45.17
2018-04-02T23:45:16.323Z,45.36
2018-04-02T23:47:43.939Z,45.23
2018-04-02T23:50:11.574Z,45.59
2018-04-02T23:52:39.278Z,46.33
2018-04-02T23:55:06.894Z,46.27
2018-04-02T23:57:34.527Z,46.93
